createdAt,value
2023-06-11T00:01:31.236Z,7.10
2023-06-11T00:03:58.865Z,5.90
2023-06-11T00:06:26.050Z,7.30
2023-06-11T00:08:56.297Z,7.10
2023-06-11T00:11:24.199Z,6.60
2023-06-11T00:13:51.831Z,6.90
2023-06-11T00:16:18.852Z,7.20
2023-06-11T00:18:46.581Z,6.10
2023-06-11T00:21:15.653Z,6.70
2023-06-11T00:23:42.675Z,6.50
2023-06-11T00:26:09.641Z,6.40
2023-06-11T00:28:36.870Z,6.40
2023-06-11T00:31:07.012Z,6.80
2023-06-11T00:33:34.210Z,6.20
2023-06-11T00:36:01.427Z,7.20
2023-06-11T00:38:29.866Z,7.10
2023-06-11T00:40:56.989Z,6.90
2023-06-11T00:43:25.222Z,7.00
2023-06-11T00:45:52.468Z,6.90
2023-06-11T00:48:21.042Z,6.80
2023-06-11T00:50:53.119Z,7.30
2023-06-11T00:53:23.235Z,7.00
2023-06-11T00:55:50.576Z,7.60
2023-06-11T00:58:19.117Z,7.80
2023-06-11T01:00:56.223Z,8.10
2023-06-11T01:03:28.888Z,7.60
2023-06-11T01:06:04.035Z,7.60
2023-06-11T01:08:40.445Z,7.60
2023-06-11T01:11:15.452Z,7.30
2023-06-11T01:13:42.509Z,7.70
2023-06-11T01:16:16.143Z,8.10
2023-06-11T01:19:04.849Z,8.20
2023-06-11T01:21:42.870Z,8.30
2023-06-11T01:24:19.098Z,8.30
2023-06-11T01:27:06.172Z,8.30
2023-06-11T01:29:38.417Z,7.60
2023-06-11T01:32:06.747Z,8.20
2023-06-11T01:34:33.663Z,7.30
2023-06-11T01:37:01.412Z,9.20
2023-06-11T01:39:28.433Z,9.30
2023-06-11T01:41:56.321Z,9.70
2023-06-11T01:44:23.983Z,9.70
2023-06-11T01:46:51.323Z,9.80
2023-06-11T01:49:18.858Z,9.40
2023-06-11T01:51:45.991Z,8.90
2023-06-11T01:54:13.084Z,9.10
2023-06-11T01:56:40.041Z,9.50
2023-06-11T01:59:07.719Z,8.70
2023-06-11T02:01:39.692Z,10.40
2023-06-11T02:04:06.783Z,10.40
2023-06-11T02:06:34.814Z,10.00
2023-06-11T02:09:01.705Z,10.20
2023-06-11T02:11:28.561Z,10.80
2023-06-11T02:13:55.468Z,10.20
2023-06-11T02:16:22.326Z,10.40
2023-06-11T02:18:49.829Z,9.40
2023-06-11T02:21:16.898Z,9.30
2023-06-11T02:23:43.776Z,9.00
2023-06-11T02:26:10.745Z,9.50
2023-06-11T02:28:37.711Z,9.70
2023-06-11T02:31:04.525Z,10.20
2023-06-11T02:33:31.367Z,9.20
2023-06-11T02:35:58.186Z,9.00
2023-06-11T02:38:24.959Z,8.80
2023-06-11T02:40:51.807Z,9.60
2023-06-11T02:43:18.886Z,9.20
2023-06-11T02:45:45.861Z,9.20
2023-06-11T02:48:12.675Z,8.40
2023-06-11T02:50:39.529Z,8.80
2023-06-11T02:53:06.489Z,8.10
2023-06-11T02:55:33.468Z,8.50
2023-06-11T02:58:00.438Z,9.20
2023-06-11T03:00:27.651Z,9.50
2023-06-11T03:02:54.513Z,9.00
2023-06-11T03:05:21.500Z,8.40
2023-06-11T03:07:48.423Z,10.00
2023-06-11T03:10:15.465Z,9.30
2023-06-11T03:12:42.268Z,9.20
2023-06-11T03:15:09.723Z,8.60
2023-06-11T03:17:36.908Z,9.50
2023-06-11T03:20:04.025Z,9.20
2023-06-11T03:22:30.923Z,8.90
2023-06-11T03:24:57.750Z,9.50
2023-06-11T03:27:25.414Z,9.40
2023-06-11T03:29:52.492Z,8.70
2023-06-11T03:32:19.566Z,9.80
2023-06-11T03:34:46.442Z,9.40
2023-06-11T03:37:13.257Z,9.20
2023-06-11T03:39:40.178Z,8.70
2023-06-11T03:42:07.457Z,9.20
2023-06-11T03:44:34.443Z,8.50
2023-06-11T03:47:01.479Z,8.50
2023-06-11T03:49:28.759Z,9.20
2023-06-11T04:03:03.970Z,8.20
2023-06-11T04:05:36.717Z,8.90
2023-06-11T04:08:04.823Z,8.60
2023-06-11T04:10:32.339Z,8.40
2023-06-11T04:12:59.298Z,8.80
2023-06-11T04:15:27.032Z,8.80
2023-06-11T04:17:53.940Z,8.60
2023-06-11T04:20:21.040Z,7.90
2023-06-11T04:22:47.845Z,8.40
2023-06-11T04:25:15.157Z,9.00
2023-06-11T04:27:41.992Z,9.00
2023-06-11T04:30:10.595Z,9.00
2023-06-11T04:32:38.457Z,8.80
2023-06-11T04:35:06.171Z,8.10
2023-06-11T04:37:39.832Z,8.30
2023-06-11T04:40:12.035Z,8.60
2023-06-11T04:42:42.302Z,8.20
2023-06-11T04:45:12.739Z,8.10
2023-06-11T04:47:42.049Z,8.30
2023-06-11T04:50:09.850Z,8.70
2023-06-11T04:52:40.064Z,8.40
2023-06-11T04:55:10.791Z,8.40
2023-06-11T04:57:38.555Z,8.50
2023-06-11T05:00:12.711Z,7.60
2023-06-11T05:02:40.155Z,8.30
2023-06-11T05:05:07.645Z,8.30
2023-06-11T05:07:34.908Z,8.10
2023-06-11T05:10:02.208Z,9.10
2023-06-11T05:12:29.089Z,8.20
2023-06-11T05:14:56.182Z,8.70
2023-06-11T05:17:23.904Z,8.80
2023-06-11T05:19:52.548Z,8.40
2023-06-11T05:22:20.798Z,8.50
2023-06-11T05:24:49.073Z,9.00
2023-06-11T05:27:16.649Z,8.60
2023-06-11T05:29:46.003Z,8.60
2023-06-11T05:32:16.262Z,9.20
2023-06-11T05:34:44.478Z,9.00
2023-06-11T05:37:11.847Z,8.40
2023-06-11T05:39:38.736Z,8.70
2023-06-11T05:42:06.511Z,8.70
2023-06-11T05:44:33.330Z,8.90
2023-06-11T05:47:00.242Z,8.20
2023-06-11T05:49:27.262Z,7.80
2023-06-11T05:51:54.054Z,7.60
2023-06-11T05:54:20.929Z,7.90
2023-06-11T05:56:47.809Z,8.00
2023-06-11T05:59:14.624Z,7.80
2023-06-11T06:01:46.460Z,7.80
2023-06-11T06:04:16.289Z,7.70
2023-06-11T06:09:11.300Z,8.50
2023-06-11T06:11:38.358Z,7.80
2023-06-11T06:14:05.372Z,7.70
2023-06-11T06:16:33.083Z,7.40
2023-06-11T06:19:00.224Z,7.30
2023-06-11T06:21:27.093Z,7.20
2023-06-11T06:23:54.176Z,6.90
2023-06-11T06:26:21.851Z,7.30
2023-06-11T06:28:48.767Z,7.00
2023-06-11T06:31:18.727Z,6.70
2023-06-11T06:33:45.962Z,6.50
2023-06-11T06:36:13.105Z,6.80
2023-06-11T06:38:41.750Z,6.70
2023-06-11T06:41:08.951Z,6.50
2023-06-11T06:43:36.709Z,6.30
2023-06-11T06:46:03.534Z,6.30
2023-06-11T06:48:30.527Z,7.00
2023-06-11T06:50:57.692Z,7.40
2023-06-11T06:53:24.536Z,7.90
2023-06-11T06:55:53.290Z,7.70
2023-06-11T06:58:20.568Z,8.10
2023-06-11T07:00:47.397Z,8.10
2023-06-11T07:03:16.962Z,7.90
2023-06-11T07:08:13.521Z,7.80
2023-06-11T07:10:50.358Z,8.00
2023-06-11T07:13:17.294Z,7.60
2023-06-11T07:15:44.320Z,8.00
2023-06-11T07:18:11.299Z,8.60
2023-06-11T07:20:38.823Z,7.50
2023-06-11T07:23:05.805Z,7.70
2023-06-11T07:25:33.277Z,7.90
2023-06-11T07:28:03.563Z,7.50
2023-06-11T07:30:30.501Z,7.60
2023-06-11T07:32:57.584Z,7.00
2023-06-11T07:35:26.384Z,7.50
2023-06-11T07:37:53.785Z,7.20
2023-06-11T07:40:21.681Z,7.50
2023-06-11T07:42:49.237Z,7.40
2023-06-11T07:45:18.558Z,6.10
2023-06-11T07:47:46.846Z,6.90
2023-06-11T07:50:13.899Z,5.80
2023-06-11T07:52:41.304Z,6.20
2023-06-11T07:55:08.583Z,6.40
2023-06-11T07:57:35.455Z,6.10
2023-06-11T08:00:02.566Z,5.90
2023-06-11T08:02:30.171Z,6.20
2023-06-11T08:04:57.014Z,6.00
2023-06-11T08:07:23.787Z,6.70
2023-06-11T08:09:51.593Z,6.60
2023-06-11T08:12:18.310Z,7.00
2023-06-11T08:14:45.130Z,6.20
2023-06-11T08:17:11.940Z,5.80
2023-06-11T08:19:38.707Z,6.30
2023-06-11T08:22:06.267Z,6.70
2023-06-11T08:24:33.196Z,5.90
2023-06-11T08:27:00.089Z,6.50
2023-06-11T08:29:27.584Z,6.10
2023-06-11T08:31:54.422Z,5.60
2023-06-11T08:34:21.265Z,5.30
2023-06-11T08:36:48.582Z,5.80
2023-06-11T08:39:15.303Z,6.00
2023-06-11T08:41:42.111Z,6.30
2023-06-11T08:44:09.005Z,6.10
2023-06-11T08:46:38.047Z,6.60
2023-06-11T08:51:41.116Z,6.60
2023-06-11T08:54:09.635Z,6.40
2023-06-11T08:56:37.028Z,6.70
2023-06-11T08:59:04.181Z,5.90
2023-06-11T09:01:32.764Z,5.90
2023-06-11T09:04:01.523Z,6.10
2023-06-11T09:06:29.539Z,6.30
2023-06-11T09:09:01.235Z,5.60
2023-06-11T09:11:38.554Z,6.00
2023-06-11T09:14:08.477Z,5.80
2023-06-11T09:16:47.438Z,6.00
2023-06-11T09:19:21.756Z,5.90
2023-06-11T09:21:56.621Z,5.40
2023-06-11T09:24:25.377Z,5.30
2023-06-11T09:27:01.379Z,5.50
2023-06-11T09:29:29.876Z,5.80
2023-06-11T09:32:23.787Z,5.20
2023-06-11T09:34:57.474Z,5.60
2023-06-11T09:37:24.924Z,5.00
2023-06-11T09:39:51.713Z,4.70
2023-06-11T09:42:28.370Z,5.10
2023-06-11T09:45:02.460Z,5.20
2023-06-11T09:47:32.209Z,5.10
2023-06-11T09:50:00.842Z,4.70
2023-06-11T09:52:29.454Z,4.70
2023-06-11T09:54:56.988Z,4.40
2023-06-11T09:57:23.826Z,4.50
2023-06-11T09:59:52.111Z,4.80
2023-06-11T10:02:19.007Z,5.00
2023-06-11T10:04:46.883Z,4.80
2023-06-11T10:07:14.934Z,4.80
2023-06-11T10:09:44.056Z,4.20
2023-06-11T10:12:13.356Z,4.60
2023-06-11T10:14:41.689Z,4.70
2023-06-11T10:17:09.611Z,4.40
2023-06-11T10:19:37.895Z,4.50
2023-06-11T10:22:05.550Z,4.40
2023-06-11T10:24:32.512Z,4.50
2023-06-11T10:27:06.687Z,4.50
2023-06-11T10:29:38.985Z,4.50
2023-06-11T10:32:16.630Z,4.40
2023-06-11T10:34:44.719Z,4.70
2023-06-11T10:37:13.327Z,4.30
2023-06-11T10:39:55.834Z,4.10
2023-06-11T10:42:36.206Z,4.70
2023-06-11T10:45:08.714Z,4.90
2023-06-11T10:47:42.011Z,4.90
2023-06-11T10:50:12.214Z,4.70
2023-06-11T10:52:57.490Z,4.30
2023-06-11T10:55:27.563Z,3.90
2023-06-11T10:57:55.642Z,4.20
2023-06-11T11:00:23.943Z,4.20
2023-06-11T11:02:52.634Z,4.40
2023-06-11T11:05:20.827Z,4.50
2023-06-11T11:07:48.581Z,4.10
2023-06-11T11:10:20.973Z,4.20
2023-06-11T11:12:49.446Z,4.10
2023-06-11T11:15:17.283Z,4.10
2023-06-11T11:17:45.694Z,3.80
2023-06-11T11:20:21.249Z,3.60
2023-06-11T11:22:53.938Z,4.10
2023-06-11T11:25:23.106Z,3.60
2023-06-11T11:27:50.061Z,3.80
2023-06-11T11:30:18.937Z,4.00
2023-06-11T11:32:46.529Z,3.70
2023-06-11T11:35:16.243Z,3.70
2023-06-11T11:37:47.092Z,3.60
2023-06-11T11:40:14.623Z,3.70
2023-06-11T11:42:52.408Z,3.60
2023-06-11T11:45:31.392Z,3.20
2023-06-11T11:48:01.192Z,3.70
2023-06-11T11:50:35.296Z,3.50
2023-06-11T11:53:05.321Z,3.60
2023-06-11T11:55:56.039Z,3.60
2023-06-11T11:58:28.191Z,3.30
2023-06-11T12:01:00.366Z,3.40
2023-06-11T12:03:28.457Z,3.70
2023-06-11T12:06:04.422Z,4.40
2023-06-11T12:08:33.053Z,3.70
2023-06-11T12:11:02.277Z,3.50
2023-06-11T12:15:56.547Z,4.10
2023-06-11T12:18:23.510Z,3.50
2023-06-11T12:20:50.412Z,3.50
2023-06-11T12:23:17.251Z,3.70
2023-06-11T12:25:44.204Z,3.30
2023-06-11T12:28:11.082Z,3.10
2023-06-11T12:30:37.957Z,3.60
2023-06-11T12:33:04.987Z,3.70
2023-06-11T12:35:32.177Z,3.30
2023-06-11T12:37:59.197Z,3.20
2023-06-11T12:40:26.540Z,3.60
2023-06-11T12:42:58.288Z,3.10
2023-06-11T12:45:27.964Z,3.30
2023-06-11T12:47:55.145Z,3.20
2023-06-11T12:50:27.330Z,3.60
2023-06-11T12:52:54.890Z,3.60
2023-06-11T12:55:22.316Z,3.70
2023-06-11T12:57:50.148Z,3.60
2023-06-11T13:00:17.548Z,3.80
2023-06-11T13:02:45.524Z,3.50
2023-06-11T13:05:12.707Z,3.60
2023-06-11T13:07:39.689Z,3.40
2023-06-11T13:10:06.953Z,3.80
2023-06-11T13:12:34.032Z,3.80
2023-06-11T13:15:01.128Z,3.60
2023-06-11T13:17:28.780Z,3.90
2023-06-11T13:19:56.303Z,3.70
2023-06-11T13:22:23.524Z,3.30
2023-06-11T13:24:51.108Z,3.30
2023-06-11T13:27:18.389Z,3.70
2023-06-11T13:29:45.335Z,3.70
2023-06-11T13:32:12.454Z,3.80
2023-06-11T13:34:39.542Z,3.80
2023-06-11T13:37:06.855Z,3.40
2023-06-11T13:39:36.522Z,3.80
2023-06-11T13:42:03.784Z,3.30
2023-06-11T13:44:30.721Z,3.50
2023-06-11T13:46:57.809Z,3.30
2023-06-11T13:49:27.356Z,3.80
2023-06-11T13:51:56.028Z,3.40
2023-06-11T13:54:24.199Z,3.40
2023-06-11T13:56:51.644Z,3.60
2023-06-11T13:59:20.852Z,3.60
2023-06-11T14:04:14.626Z,3.40
2023-06-11T14:06:41.523Z,3.30
2023-06-11T14:09:09.454Z,3.30
2023-06-11T14:11:36.432Z,3.60
2023-06-11T14:14:03.368Z,3.60
2023-06-11T14:16:30.475Z,3.80
2023-06-11T14:18:57.421Z,3.60
2023-06-11T14:21:26.062Z,3.40
2023-06-11T14:23:53.078Z,3.50
2023-06-11T14:26:20.015Z,3.70
2023-06-11T14:28:46.893Z,3.70
2023-06-11T14:31:13.824Z,3.80
2023-06-11T14:33:40.733Z,3.40
2023-06-11T14:36:08.747Z,3.40
2023-06-11T14:38:35.843Z,3.70
2023-06-11T14:41:03.196Z,3.60
2023-06-11T14:43:30.158Z,3.40
2023-06-11T14:45:57.108Z,3.60
2023-06-11T14:48:24.014Z,3.60
2023-06-11T14:50:50.973Z,3.50
2023-06-11T14:53:17.866Z,3.60
2023-06-11T14:55:44.986Z,3.70
2023-06-11T14:58:12.365Z,3.50
2023-06-11T15:00:39.206Z,3.60
2023-06-11T15:03:10.506Z,4.20
2023-06-11T15:05:40.996Z,3.20
2023-06-11T15:08:08.058Z,3.20
2023-06-11T15:10:35.817Z,3.60
2023-06-11T15:15:30.978Z,3.60
2023-06-11T15:17:58.423Z,3.30
2023-06-11T15:20:25.486Z,3.70
2023-06-11T15:22:52.366Z,3.60
2023-06-11T15:25:19.413Z,3.80
2023-06-11T15:27:46.324Z,3.50
2023-06-11T15:30:13.502Z,3.70
2023-06-11T15:32:40.721Z,3.30
2023-06-11T15:35:08.736Z,3.50
2023-06-11T15:37:36.440Z,3.90
2023-06-11T15:40:04.000Z,3.90
2023-06-11T15:42:30.941Z,3.30
2023-06-11T15:44:57.935Z,3.90
2023-06-11T15:47:24.900Z,3.80
2023-06-11T15:49:52.649Z,3.70
2023-06-11T15:52:19.626Z,3.50
2023-06-11T15:54:47.091Z,3.60
2023-06-11T15:57:14.085Z,3.70
2023-06-11T15:59:43.634Z,4.00
2023-06-11T16:02:10.734Z,3.30
2023-06-11T16:04:38.005Z,3.40
2023-06-11T16:07:08.234Z,3.70
2023-06-11T16:09:36.641Z,4.00
2023-06-11T16:12:03.979Z,3.70
2023-06-11T16:14:30.824Z,3.50
2023-06-11T16:16:58.671Z,3.00
2023-06-11T16:19:26.313Z,3.30
2023-06-11T16:21:53.218Z,3.40
2023-06-11T16:24:20.332Z,3.80
2023-06-11T16:26:47.399Z,3.80
2023-06-11T16:29:15.212Z,3.40
2023-06-11T16:31:43.874Z,3.40
2023-06-11T16:34:12.630Z,3.50
2023-06-11T16:36:40.079Z,3.40
2023-06-11T16:39:24.965Z,3.70
2023-06-11T16:41:53.432Z,3.40
2023-06-11T16:44:20.424Z,3.60
2023-06-11T16:46:48.022Z,3.10
2023-06-11T16:49:15.067Z,3.50
2023-06-11T16:51:42.077Z,3.30
2023-06-11T16:54:09.233Z,3.20
2023-06-11T16:56:36.450Z,3.60
2023-06-11T16:59:03.394Z,3.70
2023-06-11T17:01:30.553Z,3.60
2023-06-11T17:03:57.844Z,3.70
2023-06-11T17:06:28.158Z,3.60
2023-06-11T17:08:56.412Z,3.50
2023-06-11T17:11:23.391Z,3.50
2023-06-11T17:13:51.433Z,3.80
2023-06-11T17:16:18.357Z,3.90
2023-06-11T17:18:45.289Z,4.10
2023-06-11T17:21:12.769Z,3.70
2023-06-11T17:23:39.726Z,3.80
2023-06-11T17:26:06.671Z,3.70
2023-06-11T17:28:33.662Z,4.00
2023-06-11T17:31:00.973Z,4.20
2023-06-11T17:33:27.891Z,3.70
2023-06-11T17:35:55.030Z,4.00
2023-06-11T17:38:22.064Z,3.80
2023-06-11T17:40:49.448Z,4.30
2023-06-11T17:43:16.386Z,4.20
2023-06-11T17:45:43.278Z,3.60
2023-06-11T17:48:10.221Z,3.80
2023-06-11T17:50:38.390Z,3.50
2023-06-11T17:53:06.282Z,3.40
2023-06-11T17:55:33.183Z,3.50
2023-06-11T17:58:00.208Z,3.60
2023-06-11T18:00:27.155Z,3.80
2023-06-11T18:02:56.344Z,3.80
2023-06-11T18:05:23.419Z,3.50
2023-06-11T18:07:50.425Z,3.80
2023-06-11T18:10:18.618Z,3.70
2023-06-11T18:12:46.078Z,3.40
2023-06-11T18:15:31.520Z,3.60
2023-06-11T18:18:00.495Z,3.80
2023-06-11T18:20:28.779Z,3.90
2023-06-11T18:22:56.434Z,3.30
2023-06-11T18:25:24.145Z,3.40
2023-06-11T18:27:51.128Z,3.50
2023-06-11T18:30:21.098Z,3.40
2023-06-11T18:32:49.022Z,3.40
2023-06-11T18:35:16.071Z,3.40
2023-06-11T18:37:43.007Z,3.20
2023-06-11T18:40:10.762Z,3.10
2023-06-11T18:42:38.219Z,3.30
2023-06-11T18:45:05.714Z,3.10
2023-06-11T18:47:32.608Z,3.10
2023-06-11T18:49:59.665Z,4.30
2023-06-11T18:52:26.582Z,3.70
2023-06-11T18:54:53.706Z,3.40
2023-06-11T18:57:21.069Z,3.50
2023-06-11T18:59:47.977Z,3.60
2023-06-11T19:02:14.830Z,3.20
2023-06-11T19:04:42.450Z,3.90
2023-06-11T19:07:09.816Z,3.50
2023-06-11T19:09:36.656Z,3.60
2023-06-11T19:12:03.743Z,3.80
2023-06-11T19:14:30.683Z,3.60
2023-06-11T19:16:57.589Z,3.40
2023-06-11T19:19:24.542Z,3.30
2023-06-11T19:21:51.423Z,3.50
2023-06-11T19:24:18.444Z,3.50
2023-06-11T19:26:45.293Z,3.70
2023-06-11T19:29:12.662Z,3.30
2023-06-11T19:31:39.801Z,3.70
2023-06-11T19:34:06.659Z,3.70
2023-06-11T19:36:33.658Z,3.30
2023-06-11T19:39:00.669Z,3.50
2023-06-11T19:41:30.446Z,3.90
2023-06-11T19:44:00.924Z,3.90
2023-06-11T19:46:30.780Z,4.00
2023-06-11T19:48:58.663Z,3.60
2023-06-11T19:51:25.821Z,3.60
2023-06-11T19:53:53.157Z,3.90
2023-06-11T19:56:21.198Z,4.10
2023-06-11T19:58:48.974Z,4.10
2023-06-11T20:01:17.823Z,5.00
2023-06-11T20:03:45.768Z,4.30
2023-06-11T20:06:13.483Z,4.60
2023-06-11T20:08:41.569Z,4.40
2023-06-11T20:11:12.509Z,4.20
2023-06-11T20:13:44.609Z,4.50
2023-06-11T20:16:12.647Z,3.90
2023-06-11T20:18:43.346Z,4.10
2023-06-11T20:21:10.255Z,4.10
2023-06-11T20:23:37.362Z,4.10
2023-06-11T20:26:05.202Z,4.00
2023-06-11T20:28:32.737Z,3.40
2023-06-11T20:31:04.504Z,4.00
2023-06-11T20:33:33.215Z,3.70
2023-06-11T20:36:03.235Z,4.00
2023-06-11T20:38:30.065Z,3.80
2023-06-11T20:40:58.657Z,4.10
2023-06-11T20:43:25.756Z,4.00
2023-06-11T20:48:23.372Z,3.40
2023-06-11T20:50:50.456Z,3.60
2023-06-11T20:53:32.613Z,3.70
2023-06-11T20:56:01.422Z,4.00
2023-06-11T20:58:28.913Z,4.00
2023-06-11T21:00:55.812Z,3.90
2023-06-11T21:03:22.829Z,4.00
2023-06-11T21:05:55.548Z,4.10
2023-06-11T21:08:22.496Z,3.90
2023-06-11T21:10:49.774Z,3.80
2023-06-11T21:13:16.681Z,3.50
2023-06-11T21:15:43.833Z,3.70
2023-06-11T21:18:11.052Z,4.00
2023-06-11T21:20:39.644Z,3.70
2023-06-11T21:23:07.276Z,4.30
2023-06-11T21:25:34.236Z,3.50
2023-06-11T21:28:01.409Z,3.80
2023-06-11T21:30:28.310Z,3.50
2023-06-11T21:32:55.239Z,3.80
2023-06-11T21:35:22.219Z,3.70
2023-06-11T21:37:49.134Z,3.80
2023-06-11T21:40:16.098Z,3.90
2023-06-11T21:42:43.123Z,3.70
2023-06-11T21:45:10.436Z,3.80
2023-06-11T21:47:37.299Z,3.80
2023-06-11T21:50:06.951Z,3.90
2023-06-11T21:52:39.257Z,4.10
2023-06-11T21:55:08.089Z,3.90
2023-06-11T21:57:36.094Z,3.90
2023-06-11T22:00:13.712Z,4.00
2023-06-11T22:02:42.470Z,3.80
2023-06-11T22:05:13.492Z,3.80
2023-06-11T22:07:41.677Z,3.90
2023-06-11T22:10:10.253Z,3.90
2023-06-11T22:12:43.172Z,4.10
2023-06-11T22:15:11.971Z,4.10
2023-06-11T22:17:40.849Z,4.40
2023-06-11T22:20:10.849Z,4.30
2023-06-11T22:22:43.753Z,3.80
2023-06-11T22:25:12.208Z,4.40
2023-06-11T22:27:43.548Z,4.50
2023-06-11T22:30:12.325Z,4.90
2023-06-11T22:32:39.654Z,4.70
2023-06-11T22:35:07.299Z,4.60
2023-06-11T22:37:36.934Z,4.40
2023-06-11T22:42:33.979Z,4.60
2023-06-11T22:45:01.212Z,4.60
2023-06-11T22:47:29.429Z,4.00
2023-06-11T22:49:57.589Z,3.90
2023-06-11T22:52:24.551Z,4.40
2023-06-11T22:54:51.518Z,4.50
2023-06-11T22:57:18.387Z,4.40
2023-06-11T22:59:45.183Z,4.20
2023-06-11T23:02:12.392Z,4.10
2023-06-11T23:04:40.649Z,4.40
2023-06-11T23:07:07.785Z,4.10
2023-06-11T23:09:34.716Z,4.30
2023-06-11T23:12:01.671Z,4.70
2023-06-11T23:14:28.498Z,4.60
2023-06-11T23:16:58.854Z,5.10
2023-06-11T23:19:27.166Z,5.10
2023-06-11T23:21:58.273Z,5.00
2023-06-11T23:24:27.977Z,4.40
2023-06-11T23:26:57.716Z,4.40
2023-06-11T23:29:25.166Z,4.40
2023-06-11T23:31:52.227Z,4.00
2023-06-11T23:34:19.246Z,4.50
2023-06-11T23:36:48.092Z,4.20
2023-06-11T23:39:16.361Z,4.10
2023-06-11T23:41:43.303Z,4.40
2023-06-11T23:44:12.033Z,4.50
2023-06-11T23:46:39.168Z,4.30
2023-06-11T23:49:06.135Z,4.00
2023-06-11T23:51:33.762Z,4.50
2023-06-11T23:54:01.116Z,4.40
2023-06-11T23:56:27.979Z,4.50
2023-06-11T23:58:54.858Z,4.80
